createdAt,value
2023-05-20T00:01:56.682Z,3.20
2023-05-20T00:04:30.588Z,2.40
2023-05-20T00:07:04.109Z,2.53
2023-05-20T00:09:39.318Z,2.70
2023-05-20T00:12:13.629Z,2.60
2023-05-20T00:14:46.847Z,2.50
2023-05-20T00:17:20.191Z,2.60
2023-05-20T00:19:53.849Z,2.60
2023-05-20T00:22:27.495Z,2.60
2023-05-20T00:25:00.802Z,2.50
2023-05-20T00:27:34.032Z,2.50
2023-05-20T00:30:08.470Z,2.23
2023-05-20T00:32:41.876Z,2.30
2023-05-20T00:35:15.312Z,2.37
2023-05-20T00:37:49.002Z,2.83
2023-05-20T00:40:23.467Z,2.30
2023-05-20T00:42:56.793Z,2.30
2023-05-20T00:45:30.097Z,2.40
2023-05-20T00:48:05.068Z,2.27
2023-05-20T00:50:39.860Z,2.03
2023-05-20T00:53:13.649Z,2.17
2023-05-20T00:55:47.406Z,2.10
2023-05-20T00:58:20.757Z,2.13
2023-05-20T01:00:55.171Z,2.03
2023-05-20T01:03:29.457Z,2.03
2023-05-20T01:06:03.179Z,2.20
2023-05-20T01:08:37.517Z,2.13
2023-05-20T01:11:18.774Z,2.00
2023-05-20T01:13:59.430Z,2.10
2023-05-20T01:16:36.457Z,2.03
2023-05-20T01:19:36.451Z,2.10
2023-05-20T01:22:13.452Z,2.33
2023-05-20T01:24:49.343Z,2.20
2023-05-20T01:27:23.812Z,2.10
2023-05-20T01:29:58.089Z,2.10
2023-05-20T01:32:38.110Z,2.10
2023-05-20T01:35:14.868Z,2.10
2023-05-20T01:37:49.703Z,2.03
2023-05-20T01:40:24.810Z,2.10
2023-05-20T01:43:00.217Z,2.00
2023-05-20T01:45:34.366Z,2.07
2023-05-20T01:48:09.505Z,2.07
2023-05-20T01:50:43.394Z,2.23
2023-05-20T01:53:16.722Z,1.60
2023-05-20T01:55:49.929Z,2.17
2023-05-20T01:58:23.278Z,1.90
2023-05-20T02:00:56.617Z,1.80
2023-05-20T02:03:30.108Z,2.33
2023-05-20T02:06:03.738Z,1.80
2023-05-20T02:08:37.102Z,1.90
2023-05-20T02:11:10.382Z,2.10
2023-05-20T02:13:43.794Z,1.83
2023-05-20T02:16:17.274Z,1.90
2023-05-20T02:18:51.619Z,2.00
2023-05-20T02:21:24.985Z,2.10
2023-05-20T02:23:58.296Z,2.10
2023-05-20T02:26:31.267Z,1.90
2023-05-20T02:29:05.053Z,2.33
2023-05-20T02:31:38.515Z,2.13
2023-05-20T02:34:11.799Z,2.00
2023-05-20T02:36:45.075Z,2.00
2023-05-20T02:39:18.379Z,2.13
2023-05-20T02:41:51.627Z,1.97
2023-05-20T02:44:25.004Z,2.10
2023-05-20T02:46:58.302Z,1.90
2023-05-20T02:49:31.566Z,2.10
2023-05-20T02:52:05.259Z,2.27
2023-05-20T02:54:39.875Z,2.00
2023-05-20T02:57:13.161Z,2.10
2023-05-20T02:59:46.750Z,2.00
2023-05-20T03:02:20.039Z,1.60
2023-05-20T03:04:54.019Z,2.00
2023-05-20T03:07:27.341Z,2.30
2023-05-20T03:10:02.720Z,2.20
2023-05-20T03:12:36.380Z,2.20
2023-05-20T03:15:12.580Z,2.00
2023-05-20T03:17:46.051Z,2.03
2023-05-20T03:20:21.111Z,2.17
2023-05-20T03:22:54.375Z,2.27
2023-05-20T03:25:28.800Z,2.37
2023-05-20T03:28:01.898Z,2.33
2023-05-20T03:30:35.454Z,2.30
2023-05-20T03:33:08.933Z,2.20
2023-05-20T03:35:42.320Z,2.33
2023-05-20T03:38:17.004Z,2.30
2023-05-20T03:40:50.351Z,2.00
2023-05-20T03:43:23.342Z,2.07
2023-05-20T03:45:56.623Z,2.27
2023-05-20T03:48:29.997Z,2.20
2023-05-20T03:51:03.507Z,2.40
2023-05-20T03:53:37.037Z,2.50
2023-05-20T03:56:10.346Z,2.30
2023-05-20T03:58:44.226Z,2.30
2023-05-20T04:01:17.977Z,2.40
2023-05-20T04:03:51.367Z,2.20
2023-05-20T04:06:25.074Z,2.20
2023-05-20T04:08:58.327Z,2.10
2023-05-20T04:11:31.602Z,2.10
2023-05-20T04:14:04.586Z,2.43
2023-05-20T04:16:38.873Z,2.40
2023-05-20T04:19:12.873Z,2.33
2023-05-20T04:21:48.645Z,2.20
2023-05-20T04:24:25.255Z,2.20
2023-05-20T04:26:59.029Z,2.33
2023-05-20T04:29:34.169Z,2.10
2023-05-20T04:32:10.864Z,2.07
2023-05-20T04:34:45.135Z,2.10
2023-05-20T04:37:19.224Z,2.33
2023-05-20T04:39:52.580Z,2.57
2023-05-20T04:42:25.948Z,2.60
2023-05-20T04:45:01.824Z,3.07
2023-05-20T04:47:38.564Z,2.40
2023-05-20T04:50:15.257Z,2.90
2023-05-20T04:52:49.475Z,2.93
2023-05-20T04:55:24.985Z,2.70
2023-05-20T04:57:58.606Z,2.67
2023-05-20T05:00:31.816Z,2.77
2023-05-20T05:03:05.195Z,2.60
2023-05-20T05:05:40.510Z,2.53
2023-05-20T05:08:14.555Z,2.73
2023-05-20T05:10:47.985Z,2.80
2023-05-20T05:13:21.403Z,2.80
2023-05-20T05:16:03.134Z,2.70
2023-05-20T05:18:36.878Z,2.37
2023-05-20T05:21:12.769Z,2.80
2023-05-20T05:23:46.218Z,2.70
2023-05-20T05:26:19.462Z,2.93
2023-05-20T05:28:52.760Z,3.20
2023-05-20T05:31:25.812Z,3.10
2023-05-20T05:33:59.546Z,3.27
2023-05-20T05:36:35.477Z,2.97
2023-05-20T05:39:09.120Z,2.93
2023-05-20T05:41:42.432Z,3.37
2023-05-20T05:44:16.153Z,3.60
2023-05-20T05:46:49.225Z,3.73
2023-05-20T05:49:22.857Z,3.80
2023-05-20T05:51:57.228Z,4.03
2023-05-20T05:54:30.925Z,3.70
2023-05-20T05:57:06.382Z,4.00
2023-05-20T05:59:39.912Z,3.60
2023-05-20T06:02:14.724Z,4.40
2023-05-20T06:04:48.238Z,4.50
2023-05-20T06:07:21.561Z,4.30
2023-05-20T06:09:55.237Z,4.47
2023-05-20T06:12:28.914Z,3.73
2023-05-20T06:15:02.628Z,4.33
2023-05-20T06:17:35.665Z,4.23
2023-05-20T06:20:11.299Z,4.10
2023-05-20T06:22:44.646Z,4.53
2023-05-20T06:25:18.458Z,4.63
2023-05-20T06:27:52.556Z,4.73
2023-05-20T06:30:26.176Z,4.67
2023-05-20T06:32:59.476Z,3.80
2023-05-20T06:35:34.809Z,4.27
2023-05-20T06:38:08.343Z,4.30
2023-05-20T06:40:42.047Z,4.33
2023-05-20T06:43:15.432Z,4.13
2023-05-20T06:45:48.991Z,4.10
2023-05-20T06:48:22.288Z,4.47
2023-05-20T06:50:55.556Z,4.30
2023-05-20T06:53:31.049Z,4.23
2023-05-20T06:56:04.642Z,3.90
2023-05-20T06:58:37.972Z,3.87
2023-05-20T07:01:11.419Z,4.10
2023-05-20T07:03:44.795Z,3.47
2023-05-20T07:06:18.125Z,3.63
2023-05-20T07:08:51.403Z,4.03
2023-05-20T07:11:24.706Z,3.33
2023-05-20T07:13:58.088Z,4.00
2023-05-20T07:16:32.492Z,4.07
2023-05-20T07:19:06.034Z,3.90
2023-05-20T07:21:39.622Z,3.90
2023-05-20T07:24:13.939Z,3.70
2023-05-20T07:26:47.843Z,3.77
2023-05-20T07:29:21.238Z,3.70
2023-05-20T07:31:54.871Z,4.00
2023-05-20T07:34:28.728Z,4.07
2023-05-20T07:37:02.354Z,3.50
2023-05-20T07:39:35.680Z,3.80
2023-05-20T07:42:10.143Z,3.53
2023-05-20T07:44:45.003Z,3.30
2023-05-20T07:47:18.754Z,3.40
2023-05-20T07:49:51.864Z,3.37
2023-05-20T07:52:25.141Z,4.00
2023-05-20T07:54:58.418Z,3.50
2023-05-20T07:57:31.689Z,3.27
2023-05-20T08:00:06.130Z,3.93
2023-05-20T08:02:39.977Z,3.07
2023-05-20T08:05:14.756Z,3.40
2023-05-20T08:07:48.100Z,3.63
2023-05-20T08:10:21.408Z,3.40
2023-05-20T08:12:54.699Z,3.17
2023-05-20T08:15:28.019Z,3.40
2023-05-20T08:18:01.553Z,3.53
2023-05-20T08:20:35.254Z,3.80
2023-05-20T08:23:08.839Z,3.37
2023-05-20T08:25:42.099Z,3.23
2023-05-20T08:28:15.509Z,3.67
2023-05-20T08:30:49.025Z,3.87
2023-05-20T08:33:22.662Z,3.77
2023-05-20T08:35:56.050Z,3.57
2023-05-20T08:38:29.290Z,3.40
2023-05-20T08:41:04.037Z,3.60
2023-05-20T08:43:38.622Z,3.70
2023-05-20T08:46:14.000Z,3.10
2023-05-20T08:48:49.052Z,3.23
2023-05-20T08:51:28.406Z,2.87
2023-05-20T08:54:03.500Z,3.10
2023-05-20T08:56:38.185Z,3.13
2023-05-20T08:59:12.055Z,3.67
2023-05-20T09:01:47.107Z,3.10
2023-05-20T09:04:20.675Z,3.17
2023-05-20T09:06:56.610Z,3.03
2023-05-20T09:09:30.466Z,3.00
2023-05-20T09:12:05.239Z,3.20
2023-05-20T09:14:38.577Z,2.90
2023-05-20T09:17:13.821Z,2.63
2023-05-20T09:19:48.949Z,3.10
2023-05-20T09:22:28.189Z,3.00
2023-05-20T09:25:01.918Z,2.97
2023-05-20T09:27:35.229Z,3.13
2023-05-20T09:30:14.124Z,3.00
2023-05-20T09:32:47.649Z,2.93
2023-05-20T09:35:23.176Z,2.90
2023-05-20T09:37:59.161Z,3.03
2023-05-20T09:40:33.659Z,2.80
2023-05-20T09:43:08.889Z,3.20
2023-05-20T09:45:42.798Z,3.03
2023-05-20T09:48:17.612Z,2.90
2023-05-20T09:50:53.024Z,3.80
2023-05-20T09:53:30.147Z,2.90
2023-05-20T09:56:03.817Z,2.87
2023-05-20T09:58:40.335Z,3.03
2023-05-20T10:01:13.700Z,2.80
2023-05-20T10:03:48.344Z,2.67
2023-05-20T10:06:45.633Z,2.97
2023-05-20T10:09:40.211Z,3.10
2023-05-20T10:12:28.285Z,2.80
2023-05-20T10:15:18.393Z,2.20
2023-05-20T10:18:07.052Z,2.90
2023-05-20T10:20:51.320Z,3.30
2023-05-20T10:23:33.264Z,3.60
2023-05-20T10:26:11.711Z,3.70
2023-05-20T10:28:47.443Z,3.20
2023-05-20T10:31:27.498Z,3.40
2023-05-20T10:34:04.079Z,3.07
2023-05-20T10:36:38.161Z,3.20
2023-05-20T10:39:18.406Z,3.47
2023-05-20T10:41:51.782Z,3.30
2023-05-20T10:44:25.313Z,3.50
2023-05-20T10:47:24.648Z,3.77
2023-05-20T10:50:01.575Z,3.83
2023-05-20T10:52:40.342Z,3.70
2023-05-20T10:55:25.817Z,3.60
2023-05-20T10:57:58.840Z,3.50
2023-05-20T11:00:32.422Z,3.40
2023-05-20T11:03:08.079Z,3.70
2023-05-20T11:05:42.252Z,3.67
2023-05-20T11:08:27.731Z,4.30
2023-05-20T11:11:03.022Z,3.60
2023-05-20T11:13:36.493Z,3.47
2023-05-20T11:16:10.957Z,3.57
2023-05-20T11:18:44.645Z,3.93
2023-05-20T11:21:19.191Z,3.30
2023-05-20T11:23:54.840Z,3.80
2023-05-20T11:26:30.175Z,3.93
2023-05-20T11:29:04.793Z,4.50
2023-05-20T11:31:41.493Z,3.53
2023-05-20T11:34:15.030Z,4.13
2023-05-20T11:36:50.370Z,3.87
2023-05-20T11:39:24.092Z,3.97
2023-05-20T11:41:58.302Z,3.50
2023-05-20T11:44:32.128Z,3.97
2023-05-20T11:47:07.426Z,3.63
2023-05-20T11:49:49.165Z,3.53
2023-05-20T11:52:22.752Z,3.93
2023-05-20T11:54:58.214Z,3.77
2023-05-20T11:57:31.784Z,3.67
2023-05-20T12:00:07.170Z,4.10
2023-05-20T12:02:40.517Z,3.90
2023-05-20T12:05:15.035Z,3.97
2023-05-20T12:07:49.417Z,4.30
2023-05-20T12:10:22.658Z,4.20
2023-05-20T12:12:55.987Z,4.33
2023-05-20T12:15:29.295Z,4.43
2023-05-20T12:18:02.668Z,3.80
2023-05-20T12:20:37.051Z,4.07
2023-05-20T12:23:10.665Z,4.20
2023-05-20T12:25:45.684Z,4.00
2023-05-20T12:28:19.105Z,3.80
2023-05-20T12:30:52.900Z,3.83
2023-05-20T12:33:27.626Z,3.77
2023-05-20T12:36:01.324Z,4.13
2023-05-20T12:38:34.641Z,3.83
2023-05-20T12:41:07.912Z,4.10
2023-05-20T12:43:41.296Z,4.10
2023-05-20T12:46:14.505Z,4.30
2023-05-20T12:48:47.866Z,4.83
2023-05-20T12:51:21.133Z,4.90
2023-05-20T12:53:54.749Z,4.50
2023-05-20T12:56:28.043Z,5.07
2023-05-20T12:59:02.061Z,4.37
2023-05-20T13:01:35.622Z,4.70
2023-05-20T13:04:10.479Z,4.53
2023-05-20T13:06:45.673Z,4.90
2023-05-20T13:09:19.044Z,4.10
2023-05-20T13:11:52.342Z,4.10
2023-05-20T13:14:25.657Z,3.93
2023-05-20T13:16:59.017Z,4.30
2023-05-20T13:19:32.801Z,4.60
2023-05-20T13:22:08.952Z,4.27
2023-05-20T13:24:43.041Z,4.30
2023-05-20T13:27:16.333Z,4.87
2023-05-20T13:29:49.607Z,4.13
2023-05-20T13:32:22.878Z,4.60
2023-05-20T13:34:56.959Z,4.37
2023-05-20T13:37:31.000Z,4.20
2023-05-20T13:40:04.631Z,4.20
2023-05-20T13:42:37.991Z,4.60
2023-05-20T13:45:14.275Z,4.47
2023-05-20T13:47:47.387Z,4.60
2023-05-20T13:50:21.077Z,4.20
2023-05-20T13:52:54.500Z,4.53
2023-05-20T13:55:28.334Z,4.87
2023-05-20T13:58:01.584Z,4.63
2023-05-20T14:00:35.095Z,4.43
2023-05-20T14:03:09.224Z,4.13
2023-05-20T14:05:43.011Z,4.43
2023-05-20T14:08:17.394Z,4.60
2023-05-20T14:10:54.657Z,4.33
2023-05-20T14:13:28.293Z,3.40
2023-05-20T14:16:01.747Z,4.20
2023-05-20T14:18:35.000Z,4.30
2023-05-20T14:21:08.381Z,3.97
2023-05-20T14:23:44.419Z,3.97
2023-05-20T14:26:17.832Z,3.90
2023-05-20T14:28:52.101Z,3.93
2023-05-20T14:31:25.831Z,3.57
2023-05-20T14:33:58.881Z,4.73
2023-05-20T14:36:32.333Z,4.37
2023-05-20T14:39:05.893Z,4.33
2023-05-20T14:41:39.200Z,4.07
2023-05-20T14:44:12.600Z,4.40
2023-05-20T14:46:46.122Z,4.50
2023-05-20T14:49:19.412Z,4.57
2023-05-20T14:51:52.754Z,4.17
2023-05-20T14:54:27.608Z,4.40
2023-05-20T14:57:01.441Z,4.00
2023-05-20T14:59:35.496Z,4.30
2023-05-20T15:02:09.301Z,4.77
2023-05-20T15:04:44.218Z,4.47
2023-05-20T15:07:17.539Z,4.20
2023-05-20T15:09:51.006Z,4.60
2023-05-20T15:12:24.300Z,4.60
2023-05-20T15:14:57.732Z,4.50
2023-05-20T15:17:31.345Z,4.07
2023-05-20T15:20:04.597Z,4.30
2023-05-20T15:22:37.878Z,4.30
2023-05-20T15:25:13.234Z,4.50
2023-05-20T15:27:47.012Z,4.53
2023-05-20T15:30:22.650Z,4.70
2023-05-20T15:32:57.030Z,4.43
2023-05-20T15:35:30.170Z,4.53
2023-05-20T15:38:03.581Z,4.40
2023-05-20T15:40:37.318Z,4.70
2023-05-20T15:43:10.909Z,4.60
2023-05-20T15:45:44.191Z,4.77
2023-05-20T15:48:17.607Z,4.60
2023-05-20T15:50:51.586Z,3.93
2023-05-20T15:53:25.289Z,4.27
2023-05-20T15:55:58.869Z,4.03
2023-05-20T15:58:32.153Z,4.23
2023-05-20T16:01:06.691Z,3.93
2023-05-20T16:03:41.117Z,4.20
2023-05-20T16:06:15.028Z,4.10
2023-05-20T16:08:48.408Z,4.10
2023-05-20T16:11:21.708Z,4.03
2023-05-20T16:13:55.147Z,4.07
2023-05-20T16:16:29.017Z,4.13
2023-05-20T16:19:03.367Z,3.87
2023-05-20T16:21:37.282Z,4.30
2023-05-20T16:24:11.065Z,4.47
2023-05-20T16:26:44.445Z,3.67
2023-05-20T16:29:17.814Z,4.60
2023-05-20T16:31:51.195Z,3.90
2023-05-20T16:34:24.762Z,4.03
2023-05-20T16:36:57.983Z,3.83
2023-05-20T16:39:31.408Z,3.63
2023-05-20T16:42:04.700Z,4.40
2023-05-20T16:44:39.085Z,4.40
2023-05-20T16:47:13.069Z,3.83
2023-05-20T16:49:46.508Z,3.70
2023-05-20T16:52:20.325Z,3.57
2023-05-20T16:54:54.072Z,3.70
2023-05-20T16:57:27.306Z,4.03
2023-05-20T17:00:00.806Z,3.70
2023-05-20T17:02:35.481Z,3.93
2023-05-20T17:05:11.068Z,4.07
2023-05-20T17:07:44.051Z,7.03
2023-05-20T17:10:17.773Z,5.73
2023-05-20T17:12:51.139Z,5.40
2023-05-20T17:15:25.470Z,4.50
2023-05-20T17:17:58.805Z,3.93
2023-05-20T17:20:32.790Z,4.00
2023-05-20T17:23:06.320Z,4.73
2023-05-20T17:25:39.712Z,4.30
2023-05-20T17:28:13.137Z,4.60
2023-05-20T17:30:46.390Z,3.83
2023-05-20T17:33:20.051Z,3.93
2023-05-20T17:35:53.393Z,4.10
2023-05-20T17:38:27.645Z,3.83
2023-05-20T17:41:01.038Z,4.00
2023-05-20T17:43:34.410Z,4.23
2023-05-20T17:46:07.721Z,4.23
2023-05-20T17:48:41.472Z,4.10
2023-05-20T17:51:15.298Z,4.17
2023-05-20T17:53:48.576Z,4.07
2023-05-20T17:56:22.828Z,4.07
2023-05-20T17:58:56.485Z,3.67
2023-05-20T18:01:29.964Z,3.93
2023-05-20T18:04:05.592Z,3.80
2023-05-20T18:06:39.556Z,4.60
2023-05-20T18:09:12.867Z,4.50
2023-05-20T18:11:46.545Z,4.37
2023-05-20T18:14:22.708Z,3.80
2023-05-20T18:16:57.299Z,4.00
2023-05-20T18:19:31.147Z,4.33
2023-05-20T18:22:07.149Z,3.87
2023-05-20T18:24:40.167Z,4.00
2023-05-20T18:27:13.503Z,4.43
2023-05-20T18:29:46.791Z,4.23
2023-05-20T18:32:22.185Z,3.90
2023-05-20T18:34:55.618Z,4.10
2023-05-20T18:37:28.999Z,4.30
2023-05-20T18:40:02.012Z,4.70
2023-05-20T18:42:35.402Z,4.03
2023-05-20T18:45:11.103Z,4.00
2023-05-20T18:47:44.695Z,4.57
2023-05-20T18:50:18.397Z,4.73
2023-05-20T18:52:51.926Z,4.60
2023-05-20T18:55:25.133Z,4.30
2023-05-20T18:57:58.425Z,4.70
2023-05-20T19:00:31.733Z,4.37
2023-05-20T19:03:05.103Z,4.30
2023-05-20T19:05:39.060Z,4.50
2023-05-20T19:08:12.831Z,4.93
2023-05-20T19:10:46.056Z,4.97
2023-05-20T19:13:19.371Z,4.80
2023-05-20T19:15:52.744Z,5.03
2023-05-20T19:18:28.006Z,4.57
2023-05-20T19:21:01.391Z,5.00
2023-05-20T19:23:34.764Z,5.00
2023-05-20T19:26:08.066Z,4.77
2023-05-20T19:28:41.619Z,4.93
2023-05-20T19:31:20.756Z,5.40
2023-05-20T19:33:54.669Z,4.90
2023-05-20T19:36:27.979Z,4.73
2023-05-20T19:39:01.347Z,5.50
2023-05-20T19:41:34.665Z,5.23
2023-05-20T19:44:08.448Z,4.93
2023-05-20T19:46:42.135Z,5.53
2023-05-20T19:49:15.731Z,5.20
2023-05-20T19:51:49.072Z,5.03
2023-05-20T19:54:22.433Z,5.10
2023-05-20T19:56:55.550Z,5.40
2023-05-20T19:59:28.798Z,4.43
2023-05-20T20:02:02.979Z,5.50
2023-05-20T20:04:36.360Z,5.20
2023-05-20T20:07:09.837Z,6.17
2023-05-20T20:09:44.918Z,5.57
2023-05-20T20:12:18.814Z,5.43
2023-05-20T20:14:52.304Z,5.93
2023-05-20T20:17:25.598Z,5.93
2023-05-20T20:19:58.951Z,6.03
2023-05-20T20:22:32.541Z,6.33
2023-05-20T20:25:06.093Z,6.27
2023-05-20T20:27:41.374Z,6.73
2023-05-20T20:30:17.162Z,6.47
2023-05-20T20:32:50.540Z,6.37
2023-05-20T20:35:24.337Z,6.17
2023-05-20T20:37:58.112Z,6.30
2023-05-20T20:40:33.361Z,6.40
2023-05-20T20:43:06.682Z,6.83
2023-05-20T20:45:41.812Z,6.20
2023-05-20T20:48:17.370Z,6.67
2023-05-20T20:50:51.495Z,6.80
2023-05-20T20:53:24.889Z,6.77
2023-05-20T20:55:58.168Z,6.73
2023-05-20T20:58:34.968Z,6.80
2023-05-20T21:01:09.994Z,6.47
2023-05-20T21:03:44.412Z,7.30
2023-05-20T21:06:18.001Z,6.97
2023-05-20T21:08:53.118Z,7.20
2023-05-20T21:11:27.980Z,6.80
2023-05-20T21:14:01.572Z,7.10
2023-05-20T21:16:35.259Z,7.57
2023-05-20T21:19:08.879Z,6.73
2023-05-20T21:21:42.236Z,7.93
2023-05-20T21:24:15.520Z,7.30
2023-05-20T21:26:48.905Z,7.53
2023-05-20T21:29:21.995Z,7.80
2023-05-20T21:31:55.526Z,7.60
2023-05-20T21:34:29.065Z,7.50
2023-05-20T21:37:02.372Z,7.33
2023-05-20T21:39:35.795Z,6.80
2023-05-20T21:42:09.232Z,7.87
2023-05-20T21:44:42.537Z,7.90
2023-05-20T21:47:15.873Z,7.47
2023-05-20T21:49:50.372Z,7.20
2023-05-20T21:52:23.635Z,7.30
2023-05-20T21:54:57.015Z,7.13
2023-05-20T21:57:30.434Z,7.40
2023-05-20T22:00:04.893Z,7.53
2023-05-20T22:02:38.558Z,7.20
2023-05-20T22:05:12.798Z,8.03
2023-05-20T22:07:47.468Z,7.47
2023-05-20T22:10:22.507Z,7.43
2023-05-20T22:12:58.078Z,7.53
2023-05-20T22:15:31.789Z,7.43
2023-05-20T22:18:07.640Z,7.67
2023-05-20T22:20:42.422Z,7.90
2023-05-20T22:23:15.786Z,7.37
2023-05-20T22:25:49.038Z,7.27
2023-05-20T22:28:23.753Z,7.60
2023-05-20T22:30:57.170Z,7.90
2023-05-20T22:33:30.501Z,7.53
2023-05-20T22:36:03.897Z,7.00
2023-05-20T22:38:37.655Z,7.20
2023-05-20T22:41:11.328Z,7.10
2023-05-20T22:43:44.588Z,8.27
2023-05-20T22:46:17.620Z,7.20
2023-05-20T22:48:52.855Z,7.77
2023-05-20T22:51:27.986Z,7.63
2023-05-20T22:54:01.337Z,7.53
2023-05-20T22:56:35.067Z,7.33
2023-05-20T22:59:08.369Z,7.40
2023-05-20T23:01:42.297Z,7.80
2023-05-20T23:04:15.728Z,7.40
2023-05-20T23:06:49.112Z,7.70
2023-05-20T23:09:22.506Z,7.27
2023-05-20T23:11:55.853Z,7.57
2023-05-20T23:14:29.178Z,7.70
2023-05-20T23:17:02.525Z,7.23
2023-05-20T23:19:36.142Z,7.63
2023-05-20T23:22:09.619Z,7.90
2023-05-20T23:24:43.033Z,7.60
2023-05-20T23:27:16.641Z,7.50
2023-05-20T23:29:49.937Z,7.70
2023-05-20T23:32:22.954Z,7.40
2023-05-20T23:34:56.315Z,7.00
2023-05-20T23:37:29.724Z,7.60
2023-05-20T23:40:04.755Z,7.90
2023-05-20T23:42:38.014Z,7.40
2023-05-20T23:45:15.227Z,7.20
2023-05-20T23:47:48.188Z,7.43
2023-05-20T23:50:21.556Z,7.73
2023-05-20T23:52:54.916Z,7.33
2023-05-20T23:55:28.439Z,7.50
2023-05-20T23:58:02.123Z,7.63
